Time;durP1;ratioP1;P1;durP2;ratioP2;P2;SDS_P1;SDS_P2;PMS_P1;PMS_P2;Temp;Humidity;BMP_temperature;BMP_pressure;BME280_temperature;BME280_humidity;BME280_pressure;Samples;Min_cycle;Max_cycle;Signal;HPM_P1;HPM_P2
2022/09/22 00:00:26;;;;;;;3.38;0.40;;;14.80;76.40;;;;;;5053334;28;20116;-75
2022/09/22 00:02:56;;;;;;;4.40;0.50;;;15.00;76.60;;;;;;5056188;28;20029;-75
2022/09/22 00:05:23;;;;;;;1.42;0.40;;;15.10;76.00;;;;;;5056754;28;20060;-75
2022/09/22 00:07:49;;;;;;;3.78;0.70;;;15.20;75.70;;;;;;5056379;28;20021;-75
2022/09/22 00:10:20;;;;;;;2.03;0.60;;;15.30;75.50;;;;;;5056645;28;20362;-75
2022/09/22 00:12:47;;;;;;;2.67;0.80;;;15.40;75.30;;;;;;5056393;28;20028;-75
2022/09/22 00:15:13;;;;;;;3.70;1.08;;;15.50;75.00;;;;;;5056160;28;20104;-75
2022/09/22 00:17:38;;;;;;;3.55;0.70;;;15.40;74.30;;;;;;5056517;28;20071;-75
2022/09/22 00:20:05;;;;;;;3.90;0.80;;;15.30;74.10;;;;;;5056441;28;20380;-75
2022/09/22 00:22:32;;;;;;;3.22;0.88;;;15.20;74.50;;;;;;5056237;28;20028;-75
2022/09/22 00:24:58;;;;;;;3.10;0.98;;;15.10;74.70;;;;;;5056168;28;20030;-75
2022/09/22 00:27:24;;;;;;;4.88;0.95;;;15.10;74.60;;;;;;5056032;28;20029;-74
2022/09/22 00:29:50;;;;;;;2.58;0.70;;;15.00;74.60;;;;;;5056251;28;20102;-75
2022/09/22 00:32:17;;;;;;;5.80;1.00;;;15.00;74.70;;;;;;5056296;28;20051;-75
2022/09/22 00:34:43;;;;;;;4.95;0.93;;;15.10;74.70;;;;;;5055690;28;20075;-74
2022/09/22 00:37:09;;;;;;;4.82;1.02;;;15.00;74.20;;;;;;5056186;28;20029;-75
2022/09/22 00:39:35;;;;;;;3.47;0.75;;;15.10;74.60;;;;;;5056476;28;20029;-75
2022/09/22 00:42:01;;;;;;;1.83;0.70;;;15.10;74.60;;;;;;5055800;28;20028;-75
2022/09/22 00:44:33;;;;;;;3.72;0.90;;;15.20;74.80;;;;;;5055881;28;20029;-75
2022/09/22 00:47:06;;;;;;;5.90;1.58;;;15.20;74.60;;;;;;5055982;28;20033;-75
2022/09/22 00:49:46;;;;;;;2.20;0.60;;;15.30;74.20;;;;;;5055623;28;20104;-75
2022/09/22 00:52:15;;;;;;;4.10;0.88;;;15.20;73.70;;;;;;5055584;28;20381;-75
2022/09/22 00:54:41;;;;;;;5.75;1.20;;;15.10;73.80;;;;;;5055627;28;20025;-75
2022/09/22 00:57:15;;;;;;;3.88;1.08;;;15.00;74.30;;;;;;5055683;28;20122;-75
2022/09/22 00:59:43;;;;;;;2.95;1.40;;;14.90;74.30;;;;;;5055723;28;20095;-75
2022/09/22 01:02:09;;;;;;;4.40;1.00;;;14.80;74.50;;;;;;5055473;28;20025;-75
2022/09/22 01:04:35;;;;;;;4.20;1.08;;;14.80;74.80;;;;;;5055307;28;20461;-75
2022/09/22 01:07:02;;;;;;;6.57;1.17;;;14.80;74.80;;;;;;5055619;28;20043;-75
2022/09/22 01:09:31;;;;;;;3.70;1.15;;;14.80;75.10;;;;;;5054978;28;20128;-75
2022/09/22 01:11:58;;;;;;;1.33;0.85;;;14.90;75.20;;;;;;5055412;28;20025;-75
2022/09/22 01:14:46;;;;;;;2.25;0.82;;;15.00;75.10;;;;;;5055501;28;20029;-75
2022/09/22 01:17:30;;;;;;;3.20;1.10;;;15.00;74.40;;;;;;5055122;28;20112;-75
2022/09/22 01:20:19;;;;;;;3.05;1.10;;;15.00;74.50;;;;;;5054848;28;20385;-75
2022/09/22 01:23:16;;;;;;;2.83;0.88;;;15.00;74.30;;;;;;5055395;28;20025;-75
2022/09/22 01:26:20;;;;;;;3.60;1.00;;;14.90;74.40;;;;;;5055231;28;20033;-75
2022/09/22 01:29:19;;;;;;;4.07;1.20;;;15.00;74.60;;;;;;5054705;28;20496;-75
2022/09/22 01:32:01;;;;;;;4.93;1.08;;;15.00;75.20;;;;;;5055217;28;20041;-75
2022/09/22 01:34:47;;;;;;;3.35;1.70;;;15.10;74.80;;;;;;5054986;28;20381;-75
2022/09/22 01:37:24;;;;;;;3.05;1.35;;;15.20;74.10;;;;;;5055208;28;20413;-75
2022/09/22 01:40:16;;;;;;;4.68;1.65;;;15.10;73.90;;;;;;5055294;28;20495;-75
2022/09/22 01:42:54;;;;;;;4.23;1.37;;;15.00;73.90;;;;;;5054660;28;20028;-75
2022/09/22 01:45:24;;;;;;;3.75;1.02;;;14.90;74.20;;;;;;5054832;28;20037;-75
2022/09/22 01:47:57;;;;;;;3.15;1.00;;;15.00;74.50;;;;;;5054655;28;20450;-75
2022/09/22 01:50:26;;;;;;;;;;;15.00;74.40;;;;;;5055021;28;20025;-75
2022/09/22 01:52:54;;;;;;;2.75;0.65;;;15.10;74.30;;;;;;5054427;28;19911;-75
2022/09/22 01:55:32;;;;;;;4.35;0.90;;;15.10;74.10;;;;;;5054602;28;20029;-75
2022/09/22 01:58:18;;;;;;;2.63;1.00;;;15.10;74.20;;;;;;5054718;28;20025;-75
2022/09/22 02:00:50;;;;;;;2.45;0.85;;;15.20;74.20;;;;;;5054417;28;20056;-75
2022/09/22 02:03:21;;;;;;;3.38;0.60;;;15.20;74.00;;;;;;5054446;28;20087;-75
2022/09/22 02:06:03;;;;;;;3.60;0.82;;;15.20;74.10;;;;;;5054122;28;20037;-75
2022/09/22 02:08:41;;;;;;;4.55;1.10;;;15.30;73.90;;;;;;5054179;28;20044;-75
2022/09/22 02:11:10;;;;;;;3.22;1.00;;;15.30;73.90;;;;;;5054124;28;20078;-75
2022/09/22 02:13:40;;;;;;;4.95;1.00;;;15.30;74.00;;;;;;5054148;28;20082;-75
2022/09/22 02:16:06;;;;;;;4.97;1.08;;;15.30;73.80;;;;;;5053913;28;20025;-76
2022/09/22 02:18:39;;;;;;;2.40;1.05;;;15.40;73.70;;;;;;5053997;28;20417;-75
2022/09/22 02:21:05;;;;;;;2.53;0.90;;;15.30;73.80;;;;;;5053919;28;20495;-75
2022/09/22 02:23:31;;;;;;;3.17;0.90;;;15.30;73.60;;;;;;5053352;28;20024;-75
2022/09/22 02:26:00;;;;;;;2.25;0.68;;;15.40;73.80;;;;;;5053732;28;20039;-75
2022/09/22 02:28:28;;;;;;;3.13;1.20;;;15.40;73.80;;;;;;5053656;28;20065;-75
2022/09/22 02:30:57;;;;;;;4.88;0.82;;;15.40;73.40;;;;;;5053909;28;20377;-75
2022/09/22 02:33:24;;;;;;;4.25;0.90;;;15.40;73.30;;;;;;5054021;28;20028;-75
2022/09/22 02:35:59;;;;;;;3.00;0.75;;;15.30;73.20;;;;;;5053846;28;20060;-75
2022/09/22 02:38:33;;;;;;;3.97;0.70;;;15.30;73.40;;;;;;5053380;28;20070;-75
2022/09/22 02:41:21;;;;;;;2.95;0.90;;;15.30;73.50;;;;;;5053751;28;20515;-75
2022/09/22 02:44:05;;;;;;;2.30;0.70;;;15.40;73.20;;;;;;5052430;28;20499;-76
2022/09/22 02:46:39;;;;;;;2.65;0.75;;;15.40;73.20;;;;;;5053687;28;20055;-75
2022/09/22 02:49:11;;;;;;;4.03;1.00;;;15.40;73.30;;;;;;5053650;28;20032;-75
2022/09/22 02:51:38;;;;;;;2.17;0.80;;;15.50;74.20;;;;;;5053368;28;20025;-75
2022/09/22 02:54:07;;;;;;;4.47;0.90;;;15.40;73.50;;;;;;5053562;28;20048;-75
2022/09/22 02:56:32;;;;;;;2.85;0.80;;;15.40;73.50;;;;;;5053324;28;20553;-75
2022/09/22 02:58:58;;;;;;;4.47;1.25;;;15.40;73.40;;;;;;5053377;28;20056;-75
2022/09/22 03:01:24;;;;;;;2.88;1.00;;;15.20;73.80;;;;;;5053466;28;20048;-75
2022/09/22 03:03:49;;;;;;;4.20;1.10;;;15.20;73.30;;;;;;5053055;28;20357;-75
2022/09/22 03:06:15;;;;;;;2.95;0.95;;;15.10;73.30;;;;;;5052997;28;20032;-75
2022/09/22 03:08:41;;;;;;;3.38;1.00;;;15.10;73.50;;;;;;5053438;28;20017;-75
2022/09/22 03:11:06;;;;;;;3.38;0.75;;;15.20;73.50;;;;;;5053074;28;20031;-75
2022/09/22 03:13:32;;;;;;;3.33;0.80;;;15.20;73.70;;;;;;5053084;28;20086;-75
2022/09/22 03:15:57;;;;;;;3.20;0.65;;;15.30;73.80;;;;;;5053119;28;20376;-75
2022/09/22 03:18:23;;;;;;;3.78;0.90;;;15.30;73.80;;;;;;5053381;28;20025;-75
2022/09/22 03:20:48;;;;;;;2.78;0.90;;;15.30;73.70;;;;;;5053345;28;20484;-75
2022/09/22 03:23:14;;;;;;;1.20;0.70;;;15.30;73.70;;;;;;5052879;28;20021;-75
2022/09/22 03:25:40;;;;;;;3.05;1.02;;;15.30;74.30;;;;;;5053223;28;20056;-75
2022/09/22 03:28:05;;;;;;;3.88;0.98;;;15.30;73.80;;;;;;5053026;28;20554;-75
2022/09/22 03:30:31;;;;;;;6.25;1.73;;;15.40;73.80;;;;;;5052918;28;20539;-75
2022/09/22 03:32:57;;;;;;;2.65;1.13;;;15.40;73.40;;;;;;5052796;28;20059;-75
2022/09/22 03:35:22;;;;;;;3.38;1.20;;;15.40;73.40;;;;;;5053568;28;20354;-75
2022/09/22 03:37:48;;;;;;;4.00;1.55;;;15.30;73.60;;;;;;5057188;28;20053;-74
2022/09/22 03:40:13;;;;;;;4.45;1.38;;;15.30;73.40;;;;;;5058027;28;20028;-75
2022/09/22 03:42:39;;;;;;;1.77;0.63;;;15.20;73.40;;;;;;5057250;28;20486;-75
2022/09/22 03:45:05;;;;;;;3.47;1.30;;;15.20;73.60;;;;;;5057103;28;20025;-75
2022/09/22 03:47:31;;;;;;;3.20;1.10;;;15.30;73.70;;;;;;5056598;28;20025;-75
2022/09/22 03:49:56;;;;;;;2.22;0.90;;;15.20;73.70;;;;;;5056523;28;20052;-74
2022/09/22 03:52:22;;;;;;;3.58;1.23;;;15.30;74.60;;;;;;5056828;28;20079;-75
2022/09/22 03:54:48;;;;;;;4.32;1.10;;;15.20;73.70;;;;;;5057079;28;20025;-75
2022/09/22 03:57:14;;;;;;;3.92;1.20;;;15.20;73.90;;;;;;5056636;28;20029;-75
2022/09/22 03:59:39;;;;;;;5.82;1.40;;;15.30;74.10;;;;;;5056881;28;20025;-75
2022/09/22 04:02:05;;;;;;;2.10;1.27;;;15.30;73.90;;;;;;5056595;28;20025;-75
2022/09/22 04:04:31;;;;;;;2.70;1.20;;;15.30;73.60;;;;;;5056193;28;20032;-75
2022/09/22 04:06:57;;;;;;;2.28;1.13;;;15.20;73.50;;;;;;5056775;28;20104;-75
2022/09/22 04:09:23;;;;;;;3.55;1.55;;;15.20;73.60;;;;;;5056552;28;20041;-75
2022/09/22 04:11:49;;;;;;;2.63;0.90;;;15.20;73.80;;;;;;5056660;28;20074;-75
2022/09/22 04:14:14;;;;;;;1.70;0.90;;;15.20;73.70;;;;;;5056302;28;20025;-75
2022/09/22 04:16:41;;;;;;;5.45;1.48;;;15.20;73.80;;;;;;5056224;28;20044;-75
2022/09/22 04:19:11;;;;;;;5.15;1.60;;;15.20;74.00;;;;;;5056709;28;20057;-75
2022/09/22 04:21:37;;;;;;;2.70;1.45;;;15.20;73.80;;;;;;5056219;28;20460;-75
2022/09/22 04:24:03;;;;;;;3.08;1.38;;;15.20;73.80;;;;;;5056314;28;20158;-75
2022/09/22 04:26:29;;;;;;;4.32;1.58;;;15.20;73.90;;;;;;5056141;28;20044;-75
2022/09/22 04:28:54;;;;;;;3.72;1.38;;;15.20;73.80;;;;;;5055984;28;20079;-75
2022/09/22 04:31:21;;;;;;;4.82;1.70;;;15.20;73.90;;;;;;5055975;28;20481;-75
2022/09/22 04:33:47;;;;;;;3.08;1.40;;;15.20;73.80;;;;;;5055953;28;20036;-75
2022/09/22 04:36:12;;;;;;;3.80;1.80;;;15.10;73.70;;;;;;5056287;28;20020;-75
2022/09/22 04:38:38;;;;;;;3.70;1.73;;;15.10;74.10;;;;;;5056009;28;20025;-75
2022/09/22 04:41:04;;;;;;;4.13;1.75;;;15.10;74.10;;;;;;5056070;28;20552;-75
2022/09/22 04:43:29;;;;;;;2.45;1.40;;;15.10;73.90;;;;;;5055857;28;20032;-75
2022/09/22 04:45:55;;;;;;;3.33;1.98;;;15.10;74.10;;;;;;5055646;28;20061;-75
2022/09/22 04:48:23;;;;;;;4.80;1.80;;;15.10;74.10;;;;;;5055319;28;20523;-75
2022/09/22 04:50:49;;;;;;;4.22;1.83;;;15.00;74.10;;;;;;5055946;28;20025;-75
2022/09/22 04:53:15;;;;;;;3.35;1.40;;;15.00;74.00;;;;;;5055706;28;20434;-75
2022/09/22 04:55:43;;;;;;;5.97;2.40;;;15.00;74.40;;;;;;5055688;28;20017;-75
2022/09/22 04:58:09;;;;;;;4.32;1.98;;;14.90;74.50;;;;;;5055382;28;20032;-75
2022/09/22 05:00:35;;;;;;;4.85;2.05;;;14.90;74.40;;;;;;5055660;28;20025;-75
2022/09/22 05:03:07;;;;;;;4.00;2.53;;;14.90;74.50;;;;;;5055393;28;20029;-75
2022/09/22 05:05:33;;;;;;;6.15;2.20;;;14.90;74.40;;;;;;5055119;28;20044;-76
2022/09/22 05:07:59;;;;;;;5.85;2.45;;;14.90;74.50;;;;;;5055577;28;20032;-76
2022/09/22 05:10:26;;;;;;;4.50;2.40;;;14.90;74.60;;;;;;5055401;28;20021;-76
2022/09/22 05:12:54;;;;;;;3.97;2.35;;;14.90;74.50;;;;;;5055273;28;20074;-76
2022/09/22 05:15:21;;;;;;;5.70;2.33;;;14.90;75.10;;;;;;5055104;28;20032;-74
2022/09/22 05:17:49;;;;;;;5.05;2.05;;;14.90;74.70;;;;;;5055237;28;20029;-76
2022/09/22 05:20:15;;;;;;;7.00;2.60;;;14.90;74.60;;;;;;5055049;28;20084;-76
2022/09/22 05:22:41;;;;;;;3.67;1.80;;;14.90;74.70;;;;;;5055221;28;20029;-75
2022/09/22 05:25:10;;;;;;;5.82;2.05;;;14.90;74.90;;;;;;5054993;28;20082;-75
2022/09/22 05:27:36;;;;;;;3.45;2.40;;;14.90;75.00;;;;;;5055005;28;20064;-75
2022/09/22 05:30:04;;;;;;;5.38;2.85;;;14.90;74.90;;;;;;5054812;28;20021;-75
2022/09/22 05:32:30;;;;;;;6.65;3.58;;;14.90;74.80;;;;;;5054538;28;20033;-75
2022/09/22 05:34:56;;;;;;;6.75;2.75;;;14.80;74.80;;;;;;5054799;28;20025;-75
2022/09/22 05:37:21;;;;;;;4.10;2.47;;;14.80;75.00;;;;;;5054758;28;20163;-75
2022/09/22 05:39:47;;;;;;;3.55;2.72;;;14.80;75.20;;;;;;5054936;28;20059;-75
2022/09/22 05:42:12;;;;;;;6.03;2.85;;;14.80;75.10;;;;;;5054927;28;20464;-75
2022/09/22 05:44:38;;;;;;;3.78;2.40;;;14.80;75.20;;;;;;5054586;28;20025;-75
2022/09/22 05:47:04;;;;;;;5.15;2.30;;;14.80;75.20;;;;;;5054489;28;20021;-75
2022/09/22 05:49:29;;;;;;;5.63;2.92;;;14.80;75.10;;;;;;5054677;28;20120;-75
2022/09/22 05:51:56;;;;;;;5.35;3.20;;;14.70;75.80;;;;;;5054582;28;20384;-75
2022/09/22 05:54:23;;;;;;;5.65;3.28;;;14.70;75.40;;;;;;5054367;28;20029;-76
2022/09/22 05:56:48;;;;;;;5.70;3.08;;;14.70;75.30;;;;;;5054066;28;20049;-76
2022/09/22 05:59:14;;;;;;;5.13;3.25;;;14.70;75.50;;;;;;5053628;28;20068;-76
2022/09/22 06:01:40;;;;;;;3.42;2.45;;;14.70;75.50;;;;;;5053854;28;20033;-76
2022/09/22 06:04:05;;;;;;;5.50;2.95;;;14.60;75.60;;;;;;5052586;28;20028;-76
2022/09/22 06:06:31;;;;;;;5.03;3.05;;;14.70;76.00;;;;;;5052858;28;20087;-73
2022/09/22 06:08:56;;;;;;;7.57;4.63;;;14.70;76.00;;;;;;5052044;28;20028;-75
2022/09/22 06:11:22;;;;;;;7.20;2.97;;;14.60;76.20;;;;;;5054490;28;20107;-73
2022/09/22 06:13:52;;;;;;;7.85;3.58;;;14.50;76.50;;;;;;5064221;28;20051;-74
2022/09/22 06:16:18;;;;;;;5.70;4.47;;;14.50;76.80;;;;;;5053928;28;20081;-73
2022/09/22 06:18:46;;;;;;;8.15;3.80;;;14.60;77.10;;;;;;5053604;28;20021;-74
2022/09/22 06:21:12;;;;;;;11.80;4.70;;;14.50;77.50;;;;;;5053727;28;20049;-75
2022/09/22 06:23:39;;;;;;;9.82;4.35;;;14.50;77.70;;;;;;5052488;28;20153;-77
2022/09/22 06:26:04;;;;;;;9.05;4.70;;;14.50;77.80;;;;;;5054555;28;20029;-75
2022/09/22 06:28:31;;;;;;;8.60;5.55;;;14.50;77.80;;;;;;5053496;28;20128;-75
2022/09/22 06:30:59;;;;;;;8.25;4.65;;;14.40;77.90;;;;;;5052500;28;20151;-79
2022/09/22 06:33:26;;;;;;;7.32;4.47;;;14.40;78.20;;;;;;5053802;28;20032;-78
2022/09/22 06:35:53;;;;;;;7.60;4.63;;;14.40;78.30;;;;;;5053196;28;20473;-76
2022/09/22 06:38:18;;;;;;;27.38;8.75;;;14.40;78.40;;;;;;5052721;28;20025;-76
2022/09/22 06:40:44;;;;;;;32.17;9.10;;;14.40;78.40;;;;;;5053169;28;20036;-79
2022/09/22 06:43:21;;;;;;;17.17;5.53;;;14.30;78.70;;;;;;5053149;28;20036;-78
2022/09/22 06:45:49;;;;;;;11.93;7.47;;;14.30;79.00;;;;;;5053374;28;20037;-79
2022/09/22 06:48:15;;;;;;;9.98;5.80;;;14.30;79.20;;;;;;5051022;28;20021;-78
2022/09/22 06:50:52;;;;;;;13.13;5.13;;;14.30;79.20;;;;;;5052387;28;20116;-78
2022/09/22 06:53:19;;;;;;;9.15;5.05;;;14.20;79.90;;;;;;5052502;28;20017;-78
2022/09/22 06:55:45;;;;;;;7.63;4.95;;;14.20;80.20;;;;;;5053327;28;20112;-77
2022/09/22 06:58:12;;;;;;;11.23;6.10;;;14.20;80.30;;;;;;5053581;28;20021;-76
2022/09/22 07:00:40;;;;;;;11.13;5.32;;;14.30;80.40;;;;;;5052825;28;20028;-76
2022/09/22 07:03:21;;;;;;;10.07;6.25;;;14.30;80.60;;;;;;5053177;28;20096;-74
2022/09/22 07:06:01;;;;;;;10.20;6.82;;;14.30;80.80;;;;;;5052743;28;20036;-77
2022/09/22 07:08:28;;;;;;;13.70;7.40;;;14.20;81.30;;;;;;5062919;28;20021;-77
2022/09/22 07:10:59;;;;;;;12.38;6.30;;;14.20;81.70;;;;;;5070349;28;20391;-73
2022/09/22 07:13:28;;;;;;;12.70;6.90;;;14.10;82.40;;;;;;5060373;28;20032;-75
2022/09/22 07:16:03;;;;;;;13.43;7.22;;;14.20;82.60;;;;;;5064333;28;20440;-77
2022/09/22 07:18:29;;;;;;;12.80;7.70;;;14.20;82.40;;;;;;5053307;28;20025;-76
2022/09/22 07:21:07;;;;;;;14.68;7.30;;;14.20;83.20;;;;;;5052938;28;20021;-76
2022/09/22 07:23:34;;;;;;;15.80;7.35;;;14.20;83.30;;;;;;5053290;28;20037;-76
2022/09/22 07:26:03;;;;;;;11.10;6.88;;;14.30;84.10;;;;;;5052887;28;20043;-76
2022/09/22 07:28:30;;;;;;;14.65;7.70;;;14.40;84.00;;;;;;5052820;28;20045;-77
2022/09/22 07:31:04;;;;;;;11.70;7.45;;;14.40;83.70;;;;;;5051256;28;20021;-76
2022/09/22 07:33:32;;;;;;;12.13;7.72;;;14.50;83.60;;;;;;5032375;28;20022;-76
2022/09/22 07:36:04;;;;;;;13.95;7.63;;;14.50;84.00;;;;;;5032816;28;20025;-76
2022/09/22 07:38:32;;;;;;;9.70;6.90;;;14.50;84.20;;;;;;5032177;28;20030;-76
2022/09/22 07:40:59;;;;;;;10.55;6.05;;;14.60;83.10;;;;;;5031787;28;20041;-76
2022/09/22 07:43:27;;;;;;;12.15;7.65;;;14.70;83.20;;;;;;5031638;28;20823;-75
2022/09/22 07:45:54;;;;;;;15.57;7.65;;;14.90;82.90;;;;;;5032537;28;20479;-75
2022/09/22 07:48:36;;;;;;;13.27;7.35;;;14.90;83.20;;;;;;5032703;28;20501;-76
2022/09/22 07:51:07;;;;;;;14.18;7.60;;;14.90;83.30;;;;;;5032883;28;20032;-76
2022/09/22 07:53:38;;;;;;;13.95;6.43;;;15.10;84.00;;;;;;5032867;28;20026;-76
2022/09/22 07:56:06;;;;;;;9.82;5.45;;;15.20;83.90;;;;;;5050941;28;20029;-76
2022/09/22 07:58:32;;;;;;;12.30;6.72;;;15.30;83.10;;;;;;5052677;28;20056;-75
2022/09/22 08:01:04;;;;;;;12.82;6.43;;;15.50;82.50;;;;;;5062584;28;20081;-75
2022/09/22 08:03:29;;;;;;;12.48;6.30;;;15.50;83.30;;;;;;5069568;28;20043;-75
2022/09/22 08:06:04;;;;;;;10.25;6.30;;;15.40;82.50;;;;;;5061330;28;20033;-75
2022/09/22 08:08:31;;;;;;;11.00;6.10;;;15.40;82.60;;;;;;5058657;28;20629;-74
2022/09/22 08:11:06;;;;;;;10.82;6.47;;;15.50;82.50;;;;;;5069456;28;20035;-74
2022/09/22 08:13:33;;;;;;;10.55;6.28;;;15.60;82.30;;;;;;5059763;28;20021;-74
2022/09/22 08:16:00;;;;;;;10.75;6.10;;;15.70;82.50;;;;;;5063347;28;20025;-74
2022/09/22 08:18:26;;;;;;;9.40;5.90;;;15.60;82.70;;;;;;5063086;28;20033;-74
2022/09/22 08:20:52;;;;;;;9.90;6.07;;;15.70;82.40;;;;;;5053878;28;20040;-74
2022/09/22 08:23:18;;;;;;;8.85;5.88;;;15.90;82.30;;;;;;5067167;28;20020;-74
2022/09/22 08:25:43;;;;;;;8.65;4.53;;;15.90;82.40;;;;;;5068739;28;20029;-80
2022/09/22 08:28:09;;;;;;;5.60;3.25;;;16.10;82.80;;;;;;5070357;28;20052;-81
2022/09/22 08:30:35;;;;;;;7.90;2.85;;;16.50;82.50;;;;;;5058259;28;20090;-81
2022/09/22 08:33:00;;;;;;;8.55;4.57;;;16.80;80.70;;;;;;5068836;28;20141;-81
2022/09/22 08:35:26;;;;;;;12.20;5.55;;;17.10;79.10;;;;;;5073546;28;20024;-82
2022/09/22 08:37:52;;;;;;;10.65;3.90;;;17.30;78.00;;;;;;5071284;28;20032;-83
2022/09/22 08:40:22;;;;;;;7.47;3.40;;;17.40;78.20;;;;;;5073810;28;20031;-82
2022/09/22 08:42:53;;;;;;;8.57;4.55;;;17.50;77.80;;;;;;5061918;28;20497;-82
2022/09/22 08:45:39;;;;;;;6.32;3.60;;;17.70;77.70;;;;;;5066612;28;20423;-81
2022/09/22 08:53:55;;;;;;;12.80;3.47;;;18.20;75.30;;;;;;5057430;28;20097;-80
2022/09/22 08:56:24;;;;;;;9.15;4.15;;;18.40;75.00;;;;;;5072235;28;20040;-80
2022/09/22 08:59:21;;;;;;;10.35;4.25;;;18.30;74.60;;;;;;5057328;28;20029;-80
2022/09/22 09:02:05;;;;;;;8.15;3.70;;;18.40;75.10;;;;;;5056774;28;20060;-79
2022/09/22 09:05:20;;;;;;;8.45;4.03;;;18.60;75.00;;;;;;5064124;28;20044;-74
2022/09/22 09:08:23;;;;;;;8.90;4.70;;;18.70;74.30;;;;;;5001578;28;20472;-75
2022/09/22 09:10:58;;;;;;;8.15;3.30;;;18.70;75.40;;;;;;5069022;28;20021;-74
2022/09/22 09:13:29;;;;;;;10.30;3.65;;;18.60;74.10;;;;;;5064060;28;20471;-75
2022/09/22 09:16:07;;;;;;;12.02;5.28;;;18.60;74.90;;;;;;5069059;28;20391;-75
2022/09/22 09:18:37;;;;;;;9.18;4.35;;;18.70;74.90;;;;;;5061366;28;20036;-75
2022/09/22 09:21:09;;;;;;;8.88;3.97;;;18.70;75.60;;;;;;5069347;28;20041;-75
2022/09/22 09:23:51;;;;;;;10.40;4.30;;;18.70;75.10;;;;;;5066587;28;20119;-75
2022/09/22 09:26:22;;;;;;;10.60;4.10;;;18.70;75.40;;;;;;5057756;28;20040;-77
2022/09/22 09:28:58;;;;;;;6.18;3.97;;;18.80;74.30;;;;;;5056399;28;20072;-76
2022/09/22 09:31:44;;;;;;;8.90;4.88;;;18.90;75.30;;;;;;5067753;28;20033;-76
2022/09/22 09:34:20;;;;;;;7.75;4.10;;;19.00;75.30;;;;;;5053044;28;20032;-77
2022/09/22 09:36:51;;;;;;;7.70;3.60;;;19.10;74.50;;;;;;5062120;28;20017;-77
2022/09/22 09:39:31;;;;;;;7.53;3.20;;;19.10;74.60;;;;;;5063888;28;20041;-77
2022/09/22 09:41:59;;;;;;;8.32;2.95;;;19.10;73.00;;;;;;5037308;28;20414;-77
2022/09/22 09:44:26;;;;;;;6.60;3.85;;;19.30;71.40;;;;;;5054274;28;20033;-76
2022/09/22 09:47:11;;;;;;;8.60;3.25;;;19.20;70.60;;;;;;5054166;28;20115;-78
2022/09/22 09:49:37;;;;;;;10.05;3.08;;;19.30;71.50;;;;;;5072441;28;20153;-75
2022/09/22 09:52:09;;;;;;;7.13;3.10;;;19.30;71.70;;;;;;5069912;28;20510;-77
2022/09/22 09:54:36;;;;;;;7.90;3.03;;;19.50;71.90;;;;;;5068736;28;20035;-77
2022/09/22 09:57:11;;;;;;;10.63;3.58;;;19.60;72.80;;;;;;5054491;28;20063;-77
2022/09/22 10:02:34;;;;;;;5.60;2.80;;;19.60;70.60;;;;;;5034483;28;20029;-76
2022/09/22 10:05:16;;;;;;;6.32;2.15;;;19.80;71.60;;;;;;5034550;28;20440;-77
2022/09/22 10:07:44;;;;;;;8.03;2.90;;;19.90;71.10;;;;;;5034241;28;20030;-76
2022/09/22 10:10:28;;;;;;;4.57;2.05;;;20.10;69.60;;;;;;5034368;28;20275;-76
2022/09/22 10:13:03;;;;;;;6.57;2.70;;;20.20;68.30;;;;;;5040883;28;20024;-75
2022/09/22 10:15:34;;;;;;;8.68;2.50;;;20.30;67.00;;;;;;5062961;28;20107;-75
2022/09/22 10:18:00;;;;;;;8.00;2.58;;;20.30;67.80;;;;;;5064408;28;20032;-76
2022/09/22 10:20:33;;;;;;;4.65;1.95;;;20.40;67.30;;;;;;5070319;28;20032;-78
2022/09/22 10:23:20;;;;;;;6.15;2.22;;;20.50;68.60;;;;;;5061052;28;20110;-78
2022/09/22 10:25:47;;;;;;;6.43;2.10;;;20.70;68.00;;;;;;5042978;28;20037;-83
2022/09/22 10:28:18;;;;;;;9.02;1.95;;;20.80;65.70;;;;;;5056796;28;20047;-86
2022/09/22 10:30:57;;;;;;;5.32;1.45;;;20.90;65.70;;;;;;5059713;28;20059;-72
2022/09/22 10:33:23;;;;;;;5.95;1.42;;;21.10;64.80;;;;;;5066088;28;20032;-75
2022/09/22 10:36:09;;;;;;;5.15;1.60;;;21.30;63.90;;;;;;5066348;28;20024;-75
2022/09/22 10:38:38;;;;;;;3.42;1.42;;;21.30;62.50;;;;;;5067037;28;20028;-76
2022/09/22 10:41:17;;;;;;;4.30;1.23;;;21.40;62.60;;;;;;5057876;28;20086;-75
2022/09/22 10:43:52;;;;;;;4.40;2.13;;;21.40;63.20;;;;;;5059761;28;20028;-76
2022/09/22 10:46:51;;;;;;;5.85;2.15;;;21.50;63.20;;;;;;5066032;28;20033;-75
2022/09/22 10:49:44;;;;;;;5.97;1.67;;;21.50;62.40;;;;;;5050161;28;20113;-75
2022/09/22 10:52:28;;;;;;;;;;;21.60;62.30;;;;;;5067831;28;20032;-75
2022/09/22 10:55:14;;;;;;;6.47;1.88;;;21.70;61.80;;;;;;5070753;28;20481;-76
2022/09/22 10:58:07;;;;;;;4.25;1.60;;;21.70;62.00;;;;;;5069559;28;20060;-77
2022/09/22 11:00:37;;;;;;;;;;;21.70;61.80;;;;;;5059841;28;20036;-76
2022/09/22 11:03:08;;;;;;;5.03;1.30;;;21.70;59.60;;;;;;5053349;28;20047;-78
2022/09/22 11:12:16;;;;;;;5.05;1.80;;;21.70;60.20;;;;;;5073277;28;20039;-76
2022/09/22 11:14:41;;;;;;;3.95;1.80;;;21.70;59.30;;;;;;5057285;28;20071;-76
2022/09/22 11:17:19;;;;;;;4.25;1.15;;;21.70;59.30;;;;;;5053216;28;20025;-77
2022/09/22 11:20:03;;;;;;;4.65;1.35;;;21.60;58.70;;;;;;5053179;28;20087;-79
2022/09/22 11:22:56;;;;;;;4.57;1.50;;;21.60;58.90;;;;;;5053159;28;20017;-78
2022/09/22 11:25:34;;;;;;;5.55;1.65;;;21.70;59.00;;;;;;5056031;28;20056;-76
2022/09/22 11:28:02;;;;;;;3.97;1.90;;;21.90;58.60;;;;;;5072877;28;20052;-79
2022/09/22 11:30:45;;;;;;;2.97;1.35;;;22.00;58.20;;;;;;5072797;28;20091;-80
2022/09/22 11:33:39;;;;;;;3.10;1.67;;;21.90;57.90;;;;;;5073256;28;20020;-80
2022/09/22 11:36:09;;;;;;;4.50;2.00;;;21.90;58.10;;;;;;5073260;28;20059;-80
2022/09/22 11:38:57;;;;;;;2.67;1.60;;;22.00;58.40;;;;;;5072806;28;20036;-77
2022/09/22 11:41:47;;;;;;;2.35;1.00;;;22.00;58.20;;;;;;5073154;28;20073;-77
2022/09/22 11:44:32;;;;;;;3.53;0.50;;;22.10;56.80;;;;;;5072812;28;20016;-79
2022/09/22 11:47:25;;;;;;;2.85;0.50;;;22.10;55.90;;;;;;5070681;28;20033;-78
2022/09/22 11:49:51;;;;;;;4.00;0.32;;;22.10;56.30;;;;;;5033225;28;20025;-78
2022/09/22 11:52:25;;;;;;;4.53;0.50;;;22.30;55.60;;;;;;5033161;28;20018;-78
2022/09/22 11:55:19;;;;;;;3.10;0.30;;;22.40;55.80;;;;;;5068587;28;20438;-79
2022/09/22 11:57:49;;;;;;;1.23;0.25;;;22.50;54.50;;;;;;5055665;28;20036;-78
2022/09/22 12:00:17;;;;;;;4.40;0.50;;;22.50;53.70;;;;;;5056658;28;20021;-78
2022/09/22 12:03:09;;;;;;;2.30;0.63;;;22.60;53.90;;;;;;5056488;28;20029;-78
2022/09/22 12:05:42;;;;;;;4.40;0.45;;;22.70;53.70;;;;;;5063815;28;20047;-77
2022/09/22 12:08:15;;;;;;;3.75;0.60;;;22.80;54.90;;;;;;5076545;28;20074;-76
2022/09/22 12:10:44;;;;;;;2.38;0.68;;;23.00;54.30;;;;;;5076672;28;20032;-78
2022/09/22 12:13:14;;;;;;;2.42;0.60;;;23.10;52.00;;;;;;5076412;28;20044;-78
2022/09/22 12:15:49;;;;;;;2.05;0.90;;;23.20;51.70;;;;;;5067408;28;20087;-76
2022/09/22 12:18:24;;;;;;;2.25;0.65;;;23.10;52.20;;;;;;5056461;28;20036;-75
2022/09/22 12:21:03;;;;;;;2.92;0.63;;;23.00;52.40;;;;;;5056583;28;20035;-75
2022/09/22 12:23:42;;;;;;;2.10;0.35;;;23.20;54.30;;;;;;5064844;28;20025;-75
2022/09/22 12:26:10;;;;;;;1.70;0.30;;;23.20;50.80;;;;;;5067273;28;20032;-76
2022/09/22 12:28:44;;;;;;;3.40;0.30;;;23.20;50.50;;;;;;5065977;28;20037;-76
2022/09/22 12:31:17;;;;;;;1.95;0.30;;;23.30;50.50;;;;;;5059006;28;20098;-77
2022/09/22 12:33:53;;;;;;;1.92;0.45;;;23.40;51.70;;;;;;5060535;28;20025;-77
2022/09/22 12:36:37;;;;;;;1.85;0.52;;;23.40;51.10;;;;;;5063110;28;20064;-76
2022/09/22 12:39:18;;;;;;;1.02;0.20;;;23.50;51.60;;;;;;5059508;28;20024;-75
2022/09/22 12:42:01;;;;;;;1.17;0.35;;;23.60;52.40;;;;;;5067578;28;20024;-75
2022/09/22 12:44:36;;;;;;;2.80;0.32;;;23.70;51.40;;;;;;5060908;28;20025;-79
2022/09/22 12:47:05;;;;;;;2.15;0.25;;;23.80;50.00;;;;;;5059755;28;20048;-77
2022/09/22 12:49:31;;;;;;;1.52;0.30;;;23.80;50.70;;;;;;5055015;28;20464;-78
2022/09/22 12:51:57;;;;;;;2.60;0.50;;;23.70;50.00;;;;;;5069298;28;20032;-78
2022/09/22 12:54:25;;;;;;;1.73;0.20;;;23.60;49.00;;;;;;5070877;28;20025;-79
2022/09/22 12:57:01;;;;;;;1.80;0.50;;;23.60;49.60;;;;;;5064833;28;20025;-77
2022/09/22 12:59:41;;;;;;;3.20;0.32;;;23.60;49.20;;;;;;5059175;28;20039;-76
2022/09/22 13:02:16;;;;;;;1.00;0.32;;;23.60;49.40;;;;;;5054800;28;20017;-78
2022/09/22 13:05:23;;;;;;;1.77;0.45;;;23.70;49.20;;;;;;5062270;28;20031;-80
2022/09/22 13:07:49;;;;;;;3.35;0.80;;;23.70;48.50;;;;;;5053954;28;20041;-79
2022/09/22 13:10:22;;;;;;;1.63;0.73;;;23.70;48.80;;;;;;5057489;28;20028;-78
2022/09/22 13:13:04;;;;;;;2.72;0.80;;;23.90;50.40;;;;;;5055750;28;20464;-80
2022/09/22 13:15:45;;;;;;;4.47;0.88;;;23.90;50.10;;;;;;5058204;28;20037;-78
2022/09/22 13:18:32;;;;;;;1.92;0.85;;;23.90;50.10;;;;;;5063530;28;20533;-78
2022/09/22 13:21:01;;;;;;;2.08;0.73;;;23.80;50.30;;;;;;5045051;28;20029;-77
2022/09/22 13:23:27;;;;;;;4.82;0.80;;;23.70;50.20;;;;;;5056609;28;20416;-77